createdAt,value
2018-08-23T00:00:43.476Z,64.30
2018-08-23T00:01:45.652Z,64.30
2018-08-23T00:02:47.829Z,64.30
2018-08-23T00:03:50.043Z,64.20
2018-08-23T00:04:52.221Z,64.10
2018-08-23T00:05:55.601Z,64.20
2018-08-23T00:07:00.913Z,64.40
2018-08-23T00:08:08.930Z,64.10
2018-08-23T00:09:11.101Z,64.10
2018-08-23T00:10:13.282Z,64.10
2018-08-23T00:11:18.423Z,64.10
2018-08-23T00:12:25.189Z,64.10
2018-08-23T00:13:27.475Z,64.60
2018-08-23T00:14:29.645Z,64.10
2018-08-23T00:15:32.582Z,63.90
2018-08-23T00:16:40.513Z,64.00
2018-08-23T00:17:45.793Z,64.00
2018-08-23T00:18:47.981Z,63.90
2018-08-23T00:19:50.142Z,64.00
2018-08-23T00:20:52.514Z,64.00
2018-08-23T00:21:54.702Z,64.10
2018-08-23T00:22:57.018Z,64.30
2018-08-23T00:24:08.986Z,64.50
2018-08-23T00:25:11.145Z,64.70
2018-08-23T00:26:15.569Z,64.50
2018-08-23T00:27:22.348Z,64.80
2018-08-23T00:28:24.514Z,64.70
2018-08-23T00:29:28.057Z,64.80
2018-08-23T00:30:31.242Z,64.50
2018-08-23T00:31:40.216Z,64.60
2018-08-23T00:32:42.387Z,64.50
2018-08-23T00:33:44.610Z,64.50
2018-08-23T00:34:46.773Z,64.50
2018-08-23T00:35:48.960Z,64.50
2018-08-23T00:36:51.154Z,64.20
2018-08-23T00:37:53.351Z,64.30
2018-08-23T00:38:55.505Z,64.40
2018-08-23T00:40:02.281Z,64.50
2018-08-23T00:41:04.465Z,64.40
2018-08-23T00:42:08.398Z,64.20
2018-08-23T00:43:12.478Z,64.40
2018-08-23T00:44:14.703Z,64.60
2018-08-23T00:45:18.253Z,64.20
2018-08-23T00:46:20.585Z,64.10
2018-08-23T00:47:24.090Z,65.20
2018-08-23T00:48:26.264Z,64.10
2018-08-23T00:49:31.077Z,64.20
2018-08-23T00:50:49.716Z,64.60
2018-08-23T00:51:51.939Z,64.70
2018-08-23T00:52:54.105Z,64.60
2018-08-23T00:54:01.889Z,64.80
2018-08-23T00:55:15.537Z,64.70
2018-08-23T00:56:20.847Z,64.90
2018-08-23T00:57:29.733Z,65.00
2018-08-23T00:58:31.957Z,64.90
2018-08-23T00:59:34.130Z,64.70
2018-08-23T01:00:36.337Z,64.90
2018-08-23T01:01:38.550Z,64.80
2018-08-23T01:02:40.778Z,64.60
2018-08-23T01:03:43.573Z,65.10
2018-08-23T01:04:46.538Z,65.10
2018-08-23T01:05:48.725Z,64.70
2018-08-23T01:06:50.914Z,65.20
2018-08-23T01:07:53.173Z,65.10
2018-08-23T01:08:55.361Z,65.10
2018-08-23T01:09:57.529Z,65.40
2018-08-23T01:10:59.705Z,65.20
2018-08-23T01:12:01.893Z,65.40
2018-08-23T01:13:04.077Z,65.30
2018-08-23T01:14:06.456Z,65.30
2018-08-23T01:15:08.645Z,65.30
2018-08-23T01:16:11.596Z,65.30
2018-08-23T01:17:15.033Z,65.20
2018-08-23T01:18:19.949Z,65.10
2018-08-23T01:19:27.880Z,65.00
2018-08-23T01:20:30.103Z,65.00
2018-08-23T01:21:37.325Z,65.20
2018-08-23T01:22:49.907Z,65.40
2018-08-23T01:23:52.073Z,65.50
2018-08-23T01:24:54.245Z,65.40
2018-08-23T01:25:56.406Z,65.50
2018-08-23T01:26:58.593Z,66.30
2018-08-23T01:28:00.769Z,66.30
2018-08-23T01:29:13.230Z,65.50
2018-08-23T01:30:15.409Z,65.60
2018-08-23T01:31:25.991Z,65.40
2018-08-23T01:32:32.037Z,65.70
2018-08-23T01:33:34.211Z,65.80
2018-08-23T01:34:36.409Z,65.70
2018-08-23T01:35:39.338Z,65.70
2018-08-23T01:36:41.590Z,65.70
2018-08-23T01:37:43.791Z,66.50
2018-08-23T01:38:45.957Z,65.80
2018-08-23T01:39:48.161Z,65.80
2018-08-23T01:40:52.893Z,66.50
2018-08-23T01:41:55.069Z,65.80
2018-08-23T01:42:57.270Z,65.90
2018-08-23T01:43:59.453Z,65.80
2018-08-23T01:45:02.326Z,66.10
2018-08-23T01:46:04.533Z,66.10
2018-08-23T01:47:06.746Z,66.10
2018-08-23T01:48:09.915Z,66.00
2018-08-23T01:49:12.089Z,66.00
2018-08-23T01:50:14.600Z,66.00
2018-08-23T01:51:16.783Z,66.50
2018-08-23T01:52:18.984Z,66.30
2018-08-23T01:53:25.750Z,66.50
2018-08-23T01:54:27.923Z,66.80
2018-08-23T01:55:30.144Z,66.70
2018-08-23T01:56:32.333Z,66.60
2018-08-23T01:57:34.541Z,66.90
2018-08-23T01:58:36.718Z,67.00
2018-08-23T01:59:38.885Z,67.00
2018-08-23T02:00:41.061Z,66.90
2018-08-23T02:01:43.249Z,66.90
2018-08-23T02:02:45.510Z,66.80
2018-08-23T02:03:47.702Z,66.70
2018-08-23T02:04:49.893Z,66.90
2018-08-23T02:05:52.065Z,66.70
2018-08-23T02:06:54.304Z,66.80
2018-08-23T02:07:56.517Z,66.70
2018-08-23T02:08:58.686Z,66.50
2018-08-23T02:10:00.883Z,67.00
2018-08-23T02:11:03.250Z,67.10
2018-08-23T02:12:05.490Z,66.60
2018-08-23T02:13:09.725Z,66.70
2018-08-23T02:14:11.926Z,66.60
2018-08-23T02:15:14.134Z,66.50
2018-08-23T02:16:16.315Z,66.10
2018-08-23T02:17:18.502Z,66.20
2018-08-23T02:18:20.697Z,66.00
2018-08-23T02:19:22.884Z,66.10
2018-08-23T02:20:31.878Z,66.30
2018-08-23T02:21:34.050Z,66.10
2018-08-23T02:22:36.209Z,65.90
2018-08-23T02:23:46.709Z,65.90
2018-08-23T02:24:48.919Z,66.20
2018-08-23T02:25:51.077Z,66.20
2018-08-23T02:26:53.271Z,66.00
2018-08-23T02:28:01.702Z,65.90
2018-08-23T02:29:04.121Z,66.00
2018-08-23T02:30:06.358Z,66.00
2018-08-23T02:31:08.560Z,65.90
2018-08-23T02:32:10.739Z,65.90
2018-08-23T02:33:13.624Z,66.00
2018-08-23T02:34:15.858Z,65.90
2018-08-23T02:35:18.036Z,65.80
2018-08-23T02:36:22.065Z,65.40
2018-08-23T02:37:24.257Z,66.00
2018-08-23T02:38:27.897Z,66.10
2018-08-23T02:39:30.082Z,66.30
2018-08-23T02:40:34.293Z,66.30
2018-08-23T02:41:36.521Z,66.60
2018-08-23T02:42:38.746Z,67.00
2018-08-23T02:43:40.957Z,66.90
2018-08-23T02:44:44.297Z,66.20
2018-08-23T02:45:50.462Z,66.80
2018-08-23T02:46:52.638Z,67.00
2018-08-23T02:47:54.833Z,67.00
2018-08-23T02:48:57.036Z,67.00
2018-08-23T02:49:59.213Z,67.00
2018-08-23T02:51:01.415Z,67.10
2018-08-23T02:52:04.101Z,67.10
2018-08-23T02:53:23.523Z,67.30
2018-08-23T02:54:25.701Z,67.40
2018-08-23T02:55:27.950Z,67.50
2018-08-23T02:56:30.142Z,67.50
2018-08-23T02:57:32.329Z,67.40
2018-08-23T02:58:47.263Z,67.40
2018-08-23T02:59:49.421Z,67.40
2018-08-23T03:00:51.582Z,67.20
2018-08-23T03:01:53.754Z,67.60
2018-08-23T03:02:56.009Z,67.20
2018-08-23T03:04:08.075Z,67.20
2018-08-23T03:05:12.111Z,67.40
2018-08-23T03:06:16.999Z,66.90
2018-08-23T03:07:21.146Z,67.20
2018-08-23T03:08:34.945Z,67.20
2018-08-23T03:09:38.313Z,67.00
2018-08-23T03:10:40.483Z,67.00
2018-08-23T03:11:42.718Z,67.00
2018-08-23T03:12:44.950Z,67.00
2018-08-23T03:13:47.113Z,67.00
2018-08-23T03:14:49.312Z,67.00
2018-08-23T03:15:51.524Z,67.00
2018-08-23T03:17:13.489Z,67.00
2018-08-23T03:18:15.665Z,67.00
2018-08-23T03:19:17.877Z,67.00
2018-08-23T03:20:20.062Z,67.20
2018-08-23T03:21:22.234Z,67.20
2018-08-23T03:22:24.574Z,67.00
2018-08-23T03:23:26.746Z,67.50
2018-08-23T03:24:28.952Z,67.20
2018-08-23T03:25:31.121Z,67.10
2018-08-23T03:26:33.310Z,68.00
2018-08-23T03:27:35.509Z,67.20
2018-08-23T03:28:37.690Z,67.20
2018-08-23T03:29:39.874Z,67.20
2018-08-23T03:30:42.137Z,67.20
2018-08-23T03:31:44.309Z,67.20
2018-08-23T03:32:46.509Z,67.30
2018-08-23T03:33:48.673Z,67.30
2018-08-23T03:34:50.862Z,67.30
2018-08-23T03:35:53.036Z,67.40
2018-08-23T03:36:55.248Z,67.30
2018-08-23T03:37:57.404Z,67.40
2018-08-23T03:38:59.602Z,67.30
2018-08-23T03:40:01.820Z,67.30
2018-08-23T03:41:04.105Z,68.00
2018-08-23T03:42:06.274Z,67.20
2018-08-23T03:43:08.465Z,67.20
2018-08-23T03:44:22.257Z,67.20
2018-08-23T03:45:27.105Z,67.20
2018-08-23T03:46:29.639Z,67.10
2018-08-23T03:47:38.131Z,67.20
2018-08-23T03:48:40.325Z,67.30
2018-08-23T03:49:43.748Z,67.20
2018-08-23T03:50:51.214Z,67.20
2018-08-23T03:51:54.569Z,67.20
2018-08-23T03:52:56.732Z,68.00
2018-08-23T03:53:58.931Z,67.20
2018-08-23T03:55:01.477Z,67.40
2018-08-23T03:56:08.538Z,67.20
2018-08-23T03:57:13.118Z,67.20
2018-08-23T03:58:15.360Z,67.10
2018-08-23T03:59:17.557Z,67.10
2018-08-23T04:00:25.909Z,67.20
2018-08-23T04:01:28.117Z,67.30
2018-08-23T04:02:30.311Z,67.20
2018-08-23T04:03:32.555Z,67.00
2018-08-23T04:04:34.750Z,67.00
2018-08-23T04:05:36.919Z,67.20
2018-08-23T04:06:39.107Z,67.20
2018-08-23T04:07:42.547Z,67.10
2018-08-23T04:08:45.894Z,67.00
2018-08-23T04:09:48.105Z,67.10
2018-08-23T04:10:50.274Z,67.00
2018-08-23T04:11:52.482Z,67.00
2018-08-23T04:12:54.666Z,67.00
2018-08-23T04:13:56.878Z,66.80
2018-08-23T04:15:14.107Z,66.90
2018-08-23T04:16:27.641Z,66.80
2018-08-23T04:17:29.858Z,66.70
2018-08-23T04:18:32.047Z,66.90
2018-08-23T04:19:53.230Z,66.90
2018-08-23T04:20:57.281Z,66.90
2018-08-23T04:21:59.747Z,67.00
2018-08-23T04:23:01.914Z,67.20
2018-08-23T04:24:04.234Z,67.10
2018-08-23T04:25:06.426Z,67.10
2018-08-23T04:26:08.637Z,67.10
2018-08-23T04:27:10.957Z,67.10
2018-08-23T04:28:13.153Z,67.10
2018-08-23T04:29:30.578Z,67.10
2018-08-23T04:30:32.744Z,67.10
2018-08-23T04:31:34.937Z,67.20
2018-08-23T04:32:48.784Z,67.20
2018-08-23T04:33:50.967Z,67.10
2018-08-23T04:34:53.571Z,67.30
2018-08-23T04:35:55.796Z,67.50
2018-08-23T04:36:57.977Z,67.90
2018-08-23T04:38:00.134Z,67.80
2018-08-23T04:39:06.112Z,67.80
2018-08-23T04:40:09.359Z,68.10
2018-08-23T04:41:12.452Z,68.20
2018-08-23T04:42:14.641Z,68.20
2018-08-23T04:43:16.867Z,68.20
2018-08-23T04:44:18.974Z,68.30
2018-08-23T04:45:23.424Z,68.20
2018-08-23T04:46:25.602Z,68.30
2018-08-23T04:47:27.778Z,68.30
2018-08-23T04:48:29.944Z,68.20
2018-08-23T04:49:32.214Z,68.20
2018-08-23T04:50:34.829Z,68.10
2018-08-23T04:51:37.315Z,67.90
2018-08-23T04:52:39.509Z,67.80
2018-08-23T04:53:41.708Z,67.80
2018-08-23T04:54:43.903Z,68.00
2018-08-23T04:55:46.072Z,68.10
2018-08-23T04:56:48.270Z,68.10
2018-08-23T04:57:50.450Z,68.10
2018-08-23T04:58:52.635Z,67.90
2018-08-23T04:59:54.793Z,67.50
2018-08-23T05:00:57.013Z,67.90
2018-08-23T05:01:59.183Z,68.00
2018-08-23T05:03:01.350Z,68.10
2018-08-23T05:04:03.681Z,68.20
2018-08-23T05:05:05.872Z,68.20
2018-08-23T05:06:08.070Z,68.10
2018-08-23T05:07:10.237Z,68.00
2018-08-23T05:08:12.417Z,68.10
2018-08-23T05:09:14.632Z,68.70
2018-08-23T05:10:16.801Z,68.00
2018-08-23T05:11:18.988Z,68.00
2018-08-23T05:12:21.253Z,69.00
2018-08-23T05:13:23.421Z,67.90
2018-08-23T05:14:25.602Z,68.20
2018-08-23T05:15:27.778Z,68.00
2018-08-23T05:16:29.986Z,68.20
2018-08-23T05:17:32.158Z,68.30
2018-08-23T05:18:34.339Z,68.10
2018-08-23T05:19:36.546Z,68.10
2018-08-23T05:20:38.718Z,68.20
2018-08-23T05:21:40.987Z,68.20
2018-08-23T05:22:50.198Z,68.00
2018-08-23T05:23:55.050Z,67.80
2018-08-23T05:25:01.820Z,67.60
2018-08-23T05:26:07.166Z,68.00
2018-08-23T05:27:09.366Z,67.90
2018-08-23T05:28:16.909Z,67.80
2018-08-23T05:29:19.064Z,67.70
2018-08-23T05:30:21.224Z,67.70
2018-08-23T05:31:23.728Z,67.50
2018-08-23T05:32:25.908Z,67.40
2018-08-23T05:33:28.098Z,67.50
2018-08-23T05:34:30.254Z,67.30
2018-08-23T05:35:32.482Z,67.40
2018-08-23T05:36:34.697Z,67.10
2018-08-23T05:37:36.886Z,66.90
2018-08-23T05:38:39.050Z,66.70
2018-08-23T05:39:48.624Z,66.60
2018-08-23T05:40:54.133Z,66.50
2018-08-23T05:41:56.337Z,66.30
2018-08-23T05:42:58.493Z,66.10
2018-08-23T05:44:11.389Z,65.80
2018-08-23T05:45:13.545Z,65.70
2018-08-23T05:46:15.722Z,65.80
2018-08-23T05:47:17.920Z,65.50
2018-08-23T05:48:31.684Z,65.30
2018-08-23T05:49:33.845Z,65.10
2018-08-23T05:50:36.013Z,65.00
2018-08-23T05:51:39.793Z,64.80
2018-08-23T05:52:41.963Z,64.90
2018-08-23T05:53:48.081Z,65.00
2018-08-23T05:54:50.472Z,64.90
2018-08-23T05:55:53.842Z,64.70
2018-08-23T05:56:56.010Z,64.70
2018-08-23T05:58:28.684Z,64.90
2018-08-23T05:59:30.894Z,65.00
2018-08-23T06:00:33.085Z,65.00
2018-08-23T06:01:35.295Z,64.70
2018-08-23T06:02:37.532Z,64.60
2018-08-23T06:03:39.720Z,64.30
2018-08-23T06:04:42.697Z,64.30
2018-08-23T06:05:46.266Z,64.10
2018-08-23T06:06:48.452Z,63.90
2018-08-23T06:07:51.289Z,64.10
2018-08-23T06:08:56.215Z,63.90
2018-08-23T06:09:58.361Z,63.70
2018-08-23T06:11:06.112Z,63.80
2018-08-23T06:12:08.317Z,63.80
2018-08-23T06:13:10.481Z,63.70
2018-08-23T06:14:13.119Z,63.70
2018-08-23T06:15:15.341Z,63.40
2018-08-23T06:16:17.514Z,63.50
2018-08-23T06:17:19.713Z,63.50
2018-08-23T06:18:22.573Z,63.50
2018-08-23T06:19:25.609Z,63.40
2018-08-23T06:20:27.786Z,63.30
2018-08-23T06:21:29.949Z,63.20
2018-08-23T06:22:32.138Z,63.00
2018-08-23T06:23:57.617Z,62.90
2018-08-23T06:24:59.810Z,62.70
2018-08-23T06:26:01.989Z,62.80
2018-08-23T06:27:04.192Z,62.70
2018-08-23T06:28:13.692Z,62.80
2018-08-23T06:29:17.401Z,62.90
2018-08-23T06:30:19.584Z,62.90
2018-08-23T06:31:21.757Z,62.70
2018-08-23T06:32:23.951Z,62.60
2018-08-23T06:33:36.991Z,62.70
2018-08-23T06:34:42.618Z,62.70
2018-08-23T06:35:45.129Z,62.80
2018-08-23T06:36:47.213Z,63.70
2018-08-23T06:37:54.933Z,63.00
2018-08-23T06:39:00.135Z,63.10
2018-08-23T06:40:02.374Z,63.20
2018-08-23T06:41:06.853Z,63.30
2018-08-23T06:42:09.001Z,63.50
2018-08-23T06:43:11.160Z,63.20
2018-08-23T06:44:13.348Z,63.20
2018-08-23T06:45:15.557Z,63.50
2018-08-23T06:46:17.755Z,62.90
2018-08-23T06:47:21.105Z,63.00
2018-08-23T06:48:23.301Z,62.90
2018-08-23T06:49:25.468Z,62.60
2018-08-23T06:50:27.673Z,62.50
2018-08-23T06:51:29.879Z,62.40
2018-08-23T06:52:37.950Z,63.00
2018-08-23T06:53:45.392Z,62.00
2018-08-23T06:54:47.613Z,61.90
2018-08-23T06:55:49.787Z,61.80
2018-08-23T06:56:51.965Z,62.20
2018-08-23T06:58:02.057Z,62.10
2018-08-23T06:59:04.447Z,62.30
2018-08-23T07:00:06.530Z,62.50
2018-08-23T07:01:14.526Z,62.20
2018-08-23T07:02:16.714Z,62.30
2018-08-23T07:03:18.889Z,62.40
2018-08-23T07:04:21.065Z,62.30
2018-08-23T07:05:23.467Z,62.30
2018-08-23T07:06:25.599Z,62.40
2018-08-23T07:07:27.770Z,62.30
2018-08-23T07:08:29.934Z,62.40
2018-08-23T07:09:37.272Z,62.20
2018-08-23T07:10:39.466Z,62.00
2018-08-23T07:11:41.924Z,61.80
2018-08-23T07:12:44.014Z,61.80
2018-08-23T07:13:46.381Z,61.80
2018-08-23T07:14:49.712Z,61.80
2018-08-23T07:15:58.886Z,61.80
2018-08-23T07:17:16.049Z,61.80
2018-08-23T07:18:20.458Z,61.80
2018-08-23T07:19:30.972Z,61.90
2018-08-23T07:20:33.164Z,61.90
2018-08-23T07:21:35.330Z,61.90
2018-08-23T07:22:37.505Z,61.90
2018-08-23T07:23:39.693Z,61.90
2018-08-23T07:24:47.300Z,61.90
2018-08-23T07:25:49.672Z,61.90
2018-08-23T07:26:52.146Z,62.70
2018-08-23T07:27:54.365Z,62.00
2018-08-23T07:28:56.568Z,61.90
2018-08-23T07:30:00.700Z,62.00
2018-08-23T07:31:02.914Z,61.60
2018-08-23T07:32:06.391Z,61.40
2018-08-23T07:33:08.621Z,61.50
2018-08-23T07:34:11.353Z,61.70
2018-08-23T07:35:16.065Z,61.40
2018-08-23T07:36:25.729Z,61.10
2018-08-23T07:37:28.435Z,61.00
2018-08-23T07:38:30.600Z,61.20
2018-08-23T07:39:32.869Z,61.60
2018-08-23T07:40:35.069Z,61.50
2018-08-23T07:41:37.281Z,61.40
2018-08-23T07:42:40.649Z,61.30
2018-08-23T07:43:42.827Z,61.70
2018-08-23T07:44:44.998Z,61.00
2018-08-23T07:45:47.181Z,61.10
2018-08-23T07:46:49.357Z,61.20
2018-08-23T07:47:52.867Z,61.20
2018-08-23T07:48:55.071Z,60.80
2018-08-23T07:49:59.448Z,60.60
2018-08-23T07:51:12.047Z,60.50
2018-08-23T07:52:21.054Z,60.30
2018-08-23T07:53:23.352Z,60.30
2018-08-23T07:54:25.578Z,60.20
2018-08-23T07:55:27.779Z,61.10
2018-08-23T07:56:30.015Z,60.40
2018-08-23T07:57:33.399Z,60.60
2018-08-23T07:58:35.574Z,60.80
2018-08-23T07:59:37.757Z,60.60
2018-08-23T08:00:41.178Z,60.80
2018-08-23T08:01:43.364Z,60.60
2018-08-23T08:02:45.572Z,60.50
2018-08-23T08:03:47.753Z,60.70
2018-08-23T08:04:49.940Z,60.50
2018-08-23T08:05:52.120Z,60.10
2018-08-23T08:06:54.297Z,60.00
2018-08-23T08:07:56.502Z,60.20
2018-08-23T08:09:00.010Z,60.20
2018-08-23T08:10:02.352Z,59.90
2018-08-23T08:11:04.618Z,59.50
2018-08-23T08:12:11.512Z,59.40
2018-08-23T08:13:13.677Z,59.50
2018-08-23T08:14:21.528Z,59.30
2018-08-23T08:15:23.841Z,59.30
2018-08-23T08:16:31.826Z,60.10
2018-08-23T08:17:34.210Z,59.40
2018-08-23T08:18:37.255Z,59.30
2018-08-23T08:19:40.747Z,59.30
2018-08-23T08:20:47.681Z,59.40
2018-08-23T08:21:49.873Z,59.10
2018-08-23T08:22:52.038Z,59.00
2018-08-23T08:23:56.602Z,59.10
2018-08-23T08:25:08.117Z,58.90
2018-08-23T08:26:10.305Z,59.00
2018-08-23T08:27:12.617Z,58.70
2018-08-23T08:28:15.942Z,58.90
2018-08-23T08:29:38.529Z,58.80
2018-08-23T08:30:43.153Z,58.70
2018-08-23T08:31:45.356Z,58.40
2018-08-23T08:32:47.573Z,58.30
2018-08-23T08:33:49.749Z,58.40
2018-08-23T08:34:52.602Z,58.40
2018-08-23T08:35:59.473Z,58.30
2018-08-23T08:37:01.646Z,58.10
2018-08-23T08:38:03.900Z,58.10
2018-08-23T08:39:08.174Z,58.10
2018-08-23T08:40:12.653Z,58.40
2018-08-23T08:41:14.867Z,58.20
2018-08-23T08:42:18.853Z,57.80
2018-08-23T08:43:21.517Z,58.00
2018-08-23T08:44:23.718Z,58.10
2018-08-23T08:45:26.191Z,57.70
2018-08-23T08:46:28.386Z,57.80
2018-08-23T08:47:30.986Z,57.50
2018-08-23T08:48:34.156Z,57.60
2018-08-23T08:49:36.349Z,57.60
2018-08-23T08:50:44.437Z,57.30
2018-08-23T08:51:46.626Z,57.00
2018-08-23T08:52:48.814Z,56.70
2018-08-23T08:53:51.613Z,56.80
2018-08-23T08:54:53.805Z,56.90
2018-08-23T08:55:55.992Z,56.90
2018-08-23T08:56:58.308Z,57.10
2018-08-23T08:58:00.426Z,57.10
2018-08-23T08:59:02.670Z,56.90
2018-08-23T09:00:04.898Z,56.80
2018-08-23T09:01:07.087Z,56.80
2018-08-23T09:02:09.274Z,56.10
2018-08-23T09:03:11.532Z,56.30
2018-08-23T09:04:19.429Z,54.90
2018-08-23T09:05:21.605Z,55.50
2018-08-23T09:06:33.830Z,55.10
2018-08-23T09:07:37.061Z,55.10
2018-08-23T09:08:39.253Z,55.40
2018-08-23T09:09:42.123Z,55.50
2018-08-23T09:10:44.282Z,55.50
2018-08-23T09:11:46.470Z,55.50
2018-08-23T09:12:48.685Z,55.30
2018-08-23T09:13:50.929Z,55.40
2018-08-23T09:14:53.093Z,55.20
2018-08-23T09:15:55.302Z,55.20
2018-08-23T09:16:57.545Z,55.60
2018-08-23T09:17:59.725Z,55.70
2018-08-23T09:19:03.418Z,55.50
2018-08-23T09:20:09.707Z,55.50
2018-08-23T09:21:11.894Z,55.60
2018-08-23T09:22:18.023Z,56.50
2018-08-23T09:23:20.202Z,55.60
2018-08-23T09:24:26.687Z,55.70
2018-08-23T09:25:34.710Z,56.30
2018-08-23T09:26:36.909Z,56.10
2018-08-23T09:27:39.117Z,56.30
2018-08-23T09:28:41.309Z,56.40
2018-08-23T09:29:43.510Z,56.20
2018-08-23T09:30:45.686Z,56.40
2018-08-23T09:31:47.864Z,56.60
2018-08-23T09:32:50.081Z,56.20
2018-08-23T09:33:52.292Z,56.20
2018-08-23T09:34:58.059Z,56.00
2018-08-23T09:36:00.258Z,56.20
2018-08-23T09:37:02.508Z,56.20
2018-08-23T09:38:09.109Z,56.10
2018-08-23T09:39:11.290Z,56.40
2018-08-23T09:40:13.493Z,56.50
2018-08-23T09:41:15.678Z,56.40
2018-08-23T09:42:17.874Z,56.10
2018-08-23T09:43:20.057Z,56.00
2018-08-23T09:44:22.221Z,56.20
2018-08-23T09:45:24.426Z,56.30
2018-08-23T09:46:26.614Z,56.00
2018-08-23T09:47:29.617Z,55.80
2018-08-23T09:48:31.787Z,55.70
2018-08-23T09:49:34.497Z,55.80
2018-08-23T09:50:36.749Z,55.40
2018-08-23T09:51:38.903Z,55.00
2018-08-23T09:52:44.026Z,54.70
2018-08-23T09:53:46.199Z,54.70
2018-08-23T09:54:48.379Z,54.80
2018-08-23T09:55:51.185Z,54.80
2018-08-23T09:56:53.349Z,54.80
2018-08-23T09:57:56.145Z,54.80
2018-08-23T09:58:58.419Z,54.30
2018-08-23T10:00:00.519Z,54.10
2018-08-23T10:01:08.420Z,54.10
2018-08-23T10:02:16.337Z,54.20
2018-08-23T10:05:25.725Z,54.20
2018-08-23T10:06:33.621Z,54.30
2018-08-23T10:07:41.365Z,54.00
2018-08-23T10:08:50.245Z,54.10
2018-08-23T10:09:58.137Z,53.80
2018-08-23T10:11:05.961Z,53.70
2018-08-23T10:12:13.876Z,53.70
2018-08-23T10:13:21.753Z,54.00
2018-08-23T10:14:29.689Z,53.50
2018-08-23T10:15:37.421Z,53.40
2018-08-23T10:16:45.293Z,53.60
2018-08-23T10:17:53.203Z,53.50
2018-08-23T10:18:58.297Z,53.20
2018-08-23T10:20:06.096Z,53.00
2018-08-23T10:21:08.319Z,53.30
2018-08-23T10:22:16.177Z,53.10
2018-08-23T10:23:21.937Z,52.90
2018-08-23T10:24:24.539Z,52.10
2018-08-23T10:25:42.530Z,52.10
2018-08-23T10:26:45.091Z,51.70
2018-08-23T10:27:47.293Z,51.90
2018-08-23T10:28:49.474Z,50.70
2018-08-23T10:29:51.664Z,50.80
2018-08-23T10:30:54.453Z,50.80
2018-08-23T10:31:56.642Z,50.80
2018-08-23T10:32:58.868Z,50.80
2018-08-23T10:34:01.070Z,50.80
2018-08-23T10:35:03.333Z,50.50
2018-08-23T10:36:05.603Z,50.40
2018-08-23T10:37:07.793Z,50.40
2018-08-23T10:38:10.058Z,50.50
2018-08-23T10:39:13.035Z,50.00
2018-08-23T10:40:15.230Z,50.00
2018-08-23T10:41:17.433Z,50.00
2018-08-23T10:42:19.595Z,50.00
2018-08-23T10:43:27.532Z,50.10
2018-08-23T10:44:29.730Z,49.30
2018-08-23T10:45:31.863Z,49.10
2018-08-23T10:46:39.713Z,49.00
2018-08-23T10:47:47.561Z,49.20
2018-08-23T10:48:49.798Z,48.90
2018-08-23T10:49:51.994Z,48.90
2018-08-23T10:50:54.191Z,49.00
2018-08-23T10:51:56.409Z,49.20
2018-08-23T10:52:58.581Z,49.10
2018-08-23T10:54:00.754Z,48.10
2018-08-23T10:55:02.983Z,48.70
2018-08-23T10:56:05.152Z,48.50
2018-08-23T10:57:11.945Z,47.90
2018-08-23T10:58:14.200Z,47.90
2018-08-23T10:59:16.353Z,48.00
2018-08-23T11:00:18.534Z,48.10
2018-08-23T11:01:20.694Z,47.90
2018-08-23T11:02:22.865Z,48.00
2018-08-23T11:03:25.041Z,47.90
2018-08-23T11:04:27.221Z,47.80
2018-08-23T11:05:29.433Z,47.80
2018-08-23T11:06:31.638Z,47.60
2018-08-23T11:07:39.590Z,47.80
2018-08-23T11:08:41.813Z,47.90
2018-08-23T11:09:49.667Z,48.10
2018-08-23T11:10:57.462Z,47.60
2018-08-23T11:11:59.658Z,48.00
2018-08-23T11:13:07.479Z,47.90
2018-08-23T11:14:15.329Z,48.00
2018-08-23T11:15:23.725Z,47.60
2018-08-23T11:16:31.694Z,47.90
2018-08-23T11:17:39.590Z,47.50
2018-08-23T11:18:47.601Z,47.60
2018-08-23T11:19:55.349Z,47.50
2018-08-23T11:20:57.533Z,47.30
2018-08-23T11:21:59.706Z,46.80
2018-08-23T11:23:01.893Z,46.90
2018-08-23T11:24:04.102Z,46.90
2018-08-23T11:25:06.290Z,46.90
2018-08-23T11:26:08.461Z,46.80
2018-08-23T11:27:10.636Z,47.00
2018-08-23T11:28:18.373Z,46.50
2018-08-23T11:29:21.597Z,46.60
2018-08-23T11:30:23.769Z,47.00
2018-08-23T11:31:28.341Z,47.00
2018-08-23T11:32:30.543Z,46.40
2018-08-23T11:33:32.788Z,46.50
2018-08-23T11:34:34.979Z,46.30
2018-08-23T11:35:37.469Z,46.50
2018-08-23T11:36:39.657Z,46.10
2018-08-23T11:37:41.833Z,45.80
2018-08-23T11:38:44.013Z,46.00
2018-08-23T11:39:46.184Z,46.60
2018-08-23T11:40:48.368Z,45.60
2018-08-23T11:41:50.581Z,45.70
2018-08-23T11:42:52.784Z,46.00
2018-08-23T11:43:55.013Z,45.70
2018-08-23T11:44:57.342Z,45.70
2018-08-23T11:46:05.266Z,45.60
2018-08-23T11:47:07.457Z,44.90
2018-08-23T11:48:09.655Z,45.20
2018-08-23T11:49:11.897Z,45.00
2018-08-23T11:50:14.085Z,45.10
2018-08-23T11:51:17.118Z,44.90
2018-08-23T11:52:19.293Z,45.00
2018-08-23T11:53:21.679Z,44.40
2018-08-23T11:54:23.721Z,44.50
2018-08-23T11:55:26.045Z,43.80
2018-08-23T11:56:28.229Z,43.90
2018-08-23T11:57:30.407Z,43.70
2018-08-23T11:58:32.731Z,44.20
2018-08-23T11:59:34.882Z,44.10
2018-08-23T12:00:37.085Z,44.00
2018-08-23T12:01:39.275Z,43.90
2018-08-23T12:02:42.287Z,44.00
2018-08-23T12:03:44.880Z,44.10
2018-08-23T12:04:47.159Z,43.40
2018-08-23T12:05:49.325Z,43.30
2018-08-23T12:06:55.473Z,43.60
2018-08-23T12:07:57.624Z,43.80
2018-08-23T12:08:59.783Z,43.80
2018-08-23T12:10:02.019Z,43.40
2018-08-23T12:11:04.210Z,43.10
2018-08-23T12:12:06.380Z,44.00
2018-08-23T12:13:08.570Z,43.20
2018-08-23T12:14:10.730Z,44.10
2018-08-23T12:15:12.979Z,44.00
2018-08-23T12:16:15.203Z,44.10
2018-08-23T12:17:17.334Z,44.30
2018-08-23T12:18:19.492Z,43.80
2018-08-23T12:19:21.670Z,44.40
2018-08-23T12:20:23.829Z,44.30
2018-08-23T12:21:26.017Z,44.30
2018-08-23T12:22:34.021Z,44.30
2018-08-23T12:23:36.182Z,44.50
2018-08-23T12:24:38.385Z,44.60
2018-08-23T12:25:40.575Z,44.80
2018-08-23T12:26:42.772Z,44.60
2018-08-23T12:27:55.520Z,45.00
2018-08-23T12:29:03.249Z,45.10
2018-08-23T12:30:06.459Z,45.00
2018-08-23T12:31:08.627Z,44.90
2018-08-23T12:32:10.826Z,46.70
2018-08-23T12:33:13.003Z,49.10
2018-08-23T12:34:25.418Z,51.90
2018-08-23T12:35:27.789Z,52.80
2018-08-23T12:36:35.778Z,54.10
2018-08-23T12:37:43.578Z,55.00
2018-08-23T12:38:51.385Z,55.20
2018-08-23T12:39:59.233Z,57.30
2018-08-23T12:41:07.240Z,58.10
2018-08-23T12:42:15.066Z,59.50
2018-08-23T12:43:19.251Z,60.90
2018-08-23T12:44:21.427Z,61.10
2018-08-23T12:45:23.578Z,62.20
2018-08-23T12:46:25.849Z,62.80
2018-08-23T12:47:28.050Z,62.70
2018-08-23T12:48:30.220Z,64.50
2018-08-23T12:49:32.498Z,65.30
2018-08-23T12:50:34.570Z,65.90
2018-08-23T12:51:37.473Z,66.90
2018-08-23T12:52:39.631Z,67.90
2018-08-23T12:53:41.781Z,67.60
2018-08-23T12:54:43.956Z,68.10
2018-08-23T12:55:46.130Z,67.70
2018-08-23T12:56:48.305Z,68.10
2018-08-23T12:57:50.453Z,68.40
2018-08-23T12:58:52.639Z,68.60
2018-08-23T12:59:54.807Z,69.40
2018-08-23T13:00:57.000Z,70.20
2018-08-23T13:01:59.287Z,69.90
2018-08-23T13:03:01.503Z,70.00
2018-08-23T13:04:03.811Z,70.10
2018-08-23T13:05:05.854Z,70.10
2018-08-23T13:06:08.050Z,71.10
2018-08-23T13:07:10.246Z,71.10
2018-08-23T13:08:12.459Z,72.00
2018-08-23T13:09:14.577Z,72.00
2018-08-23T13:10:16.765Z,72.00
2018-08-23T13:11:18.950Z,72.00
2018-08-23T13:12:21.113Z,71.30
2018-08-23T13:13:23.262Z,72.00
2018-08-23T13:14:25.415Z,72.00
2018-08-23T13:15:27.580Z,71.90
2018-08-23T13:16:29.801Z,73.40
2018-08-23T13:17:32.044Z,72.40
2018-08-23T13:18:34.169Z,71.80
2018-08-23T13:19:36.333Z,72.20
2018-08-23T13:20:38.489Z,72.80
2018-08-23T13:21:40.645Z,72.60
2018-08-23T13:22:42.805Z,73.20
2018-08-23T13:23:44.974Z,73.60
2018-08-23T13:24:52.837Z,72.50
2018-08-23T13:25:56.312Z,73.00
2018-08-23T13:26:58.494Z,72.40
2018-08-23T13:28:00.660Z,72.90
2018-08-23T13:29:02.834Z,73.30
2018-08-23T13:30:05.140Z,73.20
2018-08-23T13:31:07.322Z,73.20
2018-08-23T13:32:09.504Z,73.70
2018-08-23T13:33:11.721Z,73.40
2018-08-23T13:34:14.109Z,73.70
2018-08-23T13:35:16.304Z,73.60
2018-08-23T13:36:18.633Z,72.80
2018-08-23T13:37:20.680Z,72.40
2018-08-23T13:38:22.873Z,74.00
2018-08-23T13:39:24.994Z,74.10
2018-08-23T13:40:27.178Z,74.10
2018-08-23T13:41:29.346Z,74.30